Weather at Lewiston Nez Perce County Airport

Public forecast

Using degrees Fahrenheit for public forecast. Weather courtesy of forecast.io.

Current aviation weather report (METAR) for Lewiston Nez Perce County Airport

Retrieved 2020/10/20 04:56 UTC (1 hour ago):

KLWS 200456Z 27010G20KT 10SM OVC050 16/06 A3002 RMK AO2 SLP162 T01560061

Aviation forecast (TAF) for Lewiston Nez Perce County Airport

Retrieved 2020-10-20 00:22 UTC (6 hours ago):

TAF KLWS 192320Z 2000/2024 27013G21KT P6SM FEW050 BKN150 FM200300 26011KT P6SM FEW045 SCT200 FM201500 VRB03KT P6SM SCT008 BKN150 FM202300 VRB04KT P6SM SCT045 BKN100